Time;durP1;ratioP1;P1;durP2;ratioP2;P2;SDS_P1;SDS_P2;PMS_P1;PMS_P2;Temp;Humidity;BMP_temperature;BMP_pressure;BME280_temperature;BME280_humidity;BME280_pressure;Samples;Min_cycle;Max_cycle;Signal;HPM_P1;HPM_P2
2021/06/29 00:01:12;;;;;;;9.10;3.20;;;18.50;99.90;;;;;;5064847;28;19924;-70
2021/06/29 00:03:38;;;;;;;4.28;3.42;;;18.40;99.90;;;;;;5063170;28;20716;-69
2021/06/29 00:06:03;;;;;;;4.07;3.28;;;18.40;99.90;;;;;;5062674;28;20037;-70
2021/06/29 00:08:29;;;;;;;;;;;18.30;99.90;;;;;;5047636;28;20076;-70
2021/06/29 00:10:55;;;;;;;3.70;3.00;;;18.30;99.90;;;;;;5064474;28;20364;-69
2021/06/29 00:13:21;;;;;;;;;;;18.40;99.90;;;;;;5064727;28;20464;-71
2021/06/29 00:15:48;;;;;;;5.18;3.20;;;18.40;99.90;;;;;;5065163;28;19921;-70
2021/06/29 00:18:14;;;;;;;4.68;3.35;;;18.50;99.90;;;;;;5055156;28;20052;-70
2021/06/29 00:20:39;;;;;;;4.68;3.47;;;18.40;99.90;;;;;;5050097;28;20577;-70
2021/06/29 00:23:05;;;;;;;;;;;18.30;99.90;;;;;;5051158;28;20052;-70
2021/06/29 00:25:31;;;;;;;5.43;3.20;;;18.20;99.90;;;;;;5051261;28;19927;-71
2021/06/29 00:27:57;;;;;;;;;;;18.30;99.90;;;;;;5051913;28;20037;-69
2021/06/29 00:30:22;;;;;;;5.75;2.78;;;18.30;99.90;;;;;;5062868;28;19970;-71
2021/06/29 00:32:48;;;;;;;;;;;18.30;99.90;;;;;;5068817;28;20063;-69
2021/06/29 00:35:14;;;;;;;5.82;3.08;;;18.40;99.90;;;;;;5044421;28;19920;-71
2021/06/29 00:37:42;;;;;;;4.32;3.38;;;18.40;99.90;;;;;;5032807;28;20064;-70
2021/06/29 00:40:09;;;;;;;6.68;3.60;;;18.40;99.90;;;;;;5050984;28;20052;-70
2021/06/29 00:42:36;;;;;;;7.55;3.38;;;18.40;99.90;;;;;;5051414;28;20590;-69
2021/06/29 00:45:03;;;;;;;4.43;3.60;;;18.40;99.90;;;;;;5051839;28;20485;-71
2021/06/29 00:47:29;;;;;;;7.35;4.35;;;18.30;99.90;;;;;;5051432;28;20104;-71
2021/06/29 00:49:54;;;;;;;;;;;18.30;99.90;;;;;;5052775;28;20183;-69
2021/06/29 00:52:20;;;;;;;4.97;3.15;;;18.30;99.90;;;;;;5037833;28;19972;-69
2021/06/29 00:54:46;;;;;;;14.48;4.10;;;18.30;99.90;;;;;;5031155;28;20045;-70
2021/06/29 00:57:12;;;;;;;4.38;3.92;;;18.20;99.90;;;;;;5026526;28;20517;-70
2021/06/29 00:59:38;;;;;;;5.85;3.85;;;18.20;99.90;;;;;;5060824;28;20068;-69
2021/06/29 01:02:04;;;;;;;5.00;4.22;;;18.20;99.90;;;;;;5050516;28;20041;-70
2021/06/29 01:04:32;;;;;;;6.20;3.83;;;18.20;99.90;;;;;;5050463;28;20033;-70
2021/06/29 01:06:58;;;;;;;4.93;3.50;;;18.10;99.90;;;;;;5051298;28;20045;-71
2021/06/29 01:09:23;;;;;;;;;;;18.10;99.90;;;;;;5051278;28;20152;-70
2021/06/29 01:11:49;;;;;;;5.55;4.10;;;18.10;99.90;;;;;;5050376;28;19921;-70
2021/06/29 01:14:16;;;;;;;;;;;18.00;99.90;;;;;;5051361;28;20040;-70
2021/06/29 01:16:43;;;;;;;8.00;4.68;;;18.00;99.90;;;;;;5050412;28;19925;-70
2021/06/29 01:19:10;;;;;;;6.10;4.50;;;17.90;99.90;;;;;;5035005;28;20517;-69
2021/06/29 01:21:39;;;;;;;5.20;4.60;;;18.00;99.90;;;;;;5052142;28;20037;-71
2021/06/29 01:24:11;;;;;;;8.32;4.95;;;17.90;99.90;;;;;;5026763;28;20038;-69
2021/06/29 01:26:42;;;;;;;5.68;4.45;;;17.90;99.90;;;;;;5050163;28;20045;-70
2021/06/29 01:29:07;;;;;;;4.07;3.67;;;17.90;99.90;;;;;;5059430;28;20100;-71
2021/06/29 01:31:35;;;;;;;;;;;17.90;99.90;;;;;;5048482;28;20088;-71
2021/06/29 01:34:01;;;;;;;11.85;4.15;;;17.90;99.90;;;;;;5043161;28;19917;-69
2021/06/29 01:36:28;;;;;;;;;;;17.90;99.90;;;;;;5054678;28;20393;-70
2021/06/29 01:38:53;;;;;;;;;;;17.80;99.90;;;;;;5053238;28;19921;-70
2021/06/29 01:41:23;;;;;;;8.50;3.80;;;17.80;99.90;;;;;;5050080;28;20293;-69
2021/06/29 01:43:58;;;;;;;15.05;4.25;;;17.90;99.90;;;;;;5050051;28;20076;-70
2021/06/29 01:46:27;;;;;;;6.93;4.30;;;17.90;99.90;;;;;;5051173;28;20040;-69
2021/06/29 01:48:54;;;;;;;6.93;3.97;;;17.90;99.90;;;;;;5050830;28;20060;-70
2021/06/29 01:51:20;;;;;;;5.93;4.03;;;17.80;99.90;;;;;;5048946;28;20040;-69
2021/06/29 01:53:48;;;;;;;6.97;4.03;;;17.90;99.90;;;;;;5049376;28;20055;-69
2021/06/29 01:56:14;;;;;;;8.80;4.93;;;17.80;99.90;;;;;;5043949;28;20485;-70
2021/06/29 01:58:49;;;;;;;;;;;17.80;99.90;;;;;;5043013;28;20044;-70
2021/06/29 02:01:14;;;;;;;5.13;4.63;;;17.90;99.90;;;;;;5058200;28;20369;-69
2021/06/29 02:03:40;;;;;;;;;;;17.80;99.90;;;;;;5049827;28;20087;-70
2021/06/29 02:06:05;;;;;;;6.32;4.88;;;17.90;99.90;;;;;;5049601;28;19917;-69
2021/06/29 02:08:31;;;;;;;6.45;5.07;;;17.90;99.90;;;;;;5030237;28;20493;-71
2021/06/29 02:10:57;;;;;;;;;;;17.90;99.90;;;;;;5049216;28;20044;-69
2021/06/29 02:13:24;;;;;;;4.97;4.53;;;17.90;99.90;;;;;;5049555;28;19923;-71
2021/06/29 02:15:49;;;;;;;7.65;6.63;;;17.90;99.90;;;;;;5049399;28;20072;-70
2021/06/29 02:18:17;;;;;;;;;;;17.90;99.90;;;;;;5051669;28;20075;-71
2021/06/29 02:20:43;;;;;;;12.77;8.95;;;17.90;99.90;;;;;;5049212;28;20418;-70
2021/06/29 02:23:09;;;;;;;;;;;17.80;99.90;;;;;;5051291;28;20037;-71
2021/06/29 02:25:35;;;;;;;8.15;7.03;;;17.80;99.90;;;;;;5049309;28;20400;-71
2021/06/29 02:28:01;;;;;;;;;;;17.80;99.90;;;;;;5052940;28;20044;-71
2021/06/29 02:30:26;;;;;;;8.35;7.22;;;17.80;99.90;;;;;;5060583;28;20015;-69
2021/06/29 02:32:52;;;;;;;;;;;17.80;99.90;;;;;;5053183;28;20120;-70
2021/06/29 02:35:17;;;;;;;8.63;6.75;;;17.80;99.90;;;;;;5049297;28;19929;-69
2021/06/29 02:37:43;;;;;;;;;;;17.80;99.90;;;;;;5033585;28;20037;-70
2021/06/29 02:40:10;;;;;;;8.63;6.18;;;17.80;99.90;;;;;;5059671;28;19927;-69
2021/06/29 02:42:36;;;;;;;8.73;6.53;;;17.80;99.90;;;;;;5048445;28;20049;-70
2021/06/29 02:45:06;;;;;;;;;;;17.80;99.90;;;;;;5049024;28;20711;-70
2021/06/29 02:47:37;;;;;;;8.43;6.90;;;17.80;99.90;;;;;;5068922;28;19916;-70
2021/06/29 02:50:05;;;;;;;7.22;6.53;;;17.90;99.90;;;;;;5068371;28;20052;-70
2021/06/29 02:52:32;;;;;;;10.32;7.38;;;17.80;99.90;;;;;;5052962;28;20114;-70
2021/06/29 02:54:58;;;;;;;9.43;6.45;;;17.80;99.90;;;;;;5071022;28;20382;-71
2021/06/29 02:57:24;;;;;;;8.35;6.40;;;17.80;99.90;;;;;;5054776;28;20124;-69
2021/06/29 02:59:50;;;;;;;;;;;17.80;99.90;;;;;;5078530;28;20115;-70
2021/06/29 03:02:15;;;;;;;8.70;6.03;;;17.80;99.90;;;;;;5068042;28;19927;-67
2021/06/29 03:04:41;;;;;;;;;;;17.80;99.90;;;;;;5062468;28;20532;-70
2021/06/29 03:07:06;;;;;;;6.32;5.63;;;17.80;99.90;;;;;;5067993;28;19939;-68
2021/06/29 03:09:32;;;;;;;;;;;17.70;99.90;;;;;;5068726;28;20079;-69
2021/06/29 03:11:57;;;;;;;5.93;5.22;;;17.70;99.90;;;;;;5068342;28;20279;-69
2021/06/29 03:14:23;;;;;;;7.72;5.97;;;17.80;99.90;;;;;;5069147;28;20044;-70
2021/06/29 03:16:48;;;;;;;7.90;6.13;;;17.80;99.90;;;;;;5064682;28;20094;-70
2021/06/29 03:19:14;;;;;;;9.20;6.47;;;17.70;99.90;;;;;;5068507;28;20119;-69
2021/06/29 03:21:40;;;;;;;13.35;6.45;;;17.80;99.90;;;;;;5068186;28;20040;-70
2021/06/29 03:24:06;;;;;;;;;;;17.80;99.90;;;;;;5068862;28;20619;-70
2021/06/29 03:26:32;;;;;;;6.32;5.55;;;17.60;99.90;;;;;;5068024;28;19963;-68
2021/06/29 03:28:58;;;;;;;6.60;5.00;;;17.70;99.90;;;;;;5069135;28;20052;-70
2021/06/29 03:31:23;;;;;;;;;;;17.70;99.90;;;;;;5077135;28;20037;-67
2021/06/29 03:33:49;;;;;;;6.43;5.55;;;17.70;99.90;;;;;;5068482;28;20492;-72
2021/06/29 03:36:15;;;;;;;;;;;17.60;99.90;;;;;;5069173;28;20847;-70
2021/06/29 03:38:40;;;;;;;9.00;5.25;;;17.70;99.90;;;;;;5068097;28;19978;-67
2021/06/29 03:41:06;;;;;;;;;;;17.70;99.90;;;;;;5069287;28;20132;-69
2021/06/29 03:43:35;;;;;;;7.00;5.18;;;17.60;99.90;;;;;;5067942;28;19923;-70
2021/06/29 03:46:01;;;;;;;7.13;5.18;;;17.60;99.90;;;;;;5049433;28;20558;-69
2021/06/29 03:48:27;;;;;;;6.10;5.18;;;17.60;99.90;;;;;;5051414;28;20065;-69
2021/06/29 03:50:52;;;;;;;;;;;17.60;99.90;;;;;;5068529;28;20114;-71
2021/06/29 03:53:18;;;;;;;7.22;5.43;;;17.60;99.90;;;;;;5071238;28;19975;-67
2021/06/29 03:55:43;;;;;;;;;;;17.50;99.90;;;;;;5073401;28;20436;-69
2021/06/29 03:58:09;;;;;;;6.95;5.07;;;17.50;99.90;;;;;;5074035;28;20311;-69
2021/06/29 04:00:34;;;;;;;;;;;17.50;99.90;;;;;;5080755;28;20075;-67
2021/06/29 04:03:00;;;;;;;4.63;4.22;;;17.50;99.90;;;;;;5071151;28;19956;-70
2021/06/29 04:05:26;;;;;;;9.07;4.68;;;17.50;99.90;;;;;;5072022;28;20407;-69
2021/06/29 04:07:51;;;;;;;;;;;17.50;99.90;;;;;;5053864;28;20048;-70
2021/06/29 04:10:17;;;;;;;7.93;4.32;;;17.50;99.90;;;;;;5053517;28;19916;-70
2021/06/29 04:12:42;;;;;;;11.43;5.28;;;17.50;99.90;;;;;;5071179;28;20101;-71
2021/06/29 04:15:09;;;;;;;;;;;17.50;99.90;;;;;;5072075;28;20123;-70
2021/06/29 04:17:35;;;;;;;10.10;4.70;;;17.50;99.90;;;;;;5067543;28;19960;-72
2021/06/29 04:20:01;;;;;;;5.88;4.68;;;17.50;99.90;;;;;;5070367;28;20040;-72
2021/06/29 04:22:26;;;;;;;;;;;17.40;99.90;;;;;;5071822;28;20087;-69
2021/06/29 04:24:52;;;;;;;4.65;4.07;;;17.40;99.90;;;;;;5071740;28;20007;-69
2021/06/29 04:27:21;;;;;;;;;;;17.30;99.90;;;;;;5073015;28;20058;-67
2021/06/29 04:29:47;;;;;;;4.25;3.80;;;17.40;99.90;;;;;;5079722;28;20006;-71
2021/06/29 04:32:13;;;;;;;;;;;17.50;99.90;;;;;;5089660;28;20127;-69
2021/06/29 04:34:38;;;;;;;4.00;3.70;;;17.50;99.90;;;;;;5072085;28;20368;-68
2021/06/29 04:37:04;;;;;;;;;;;17.50;99.90;;;;;;5071130;28;20536;-69
2021/06/29 04:39:29;;;;;;;7.40;4.55;;;17.50;99.90;;;;;;5052203;28;20327;-69
2021/06/29 04:41:55;;;;;;;;;;;17.50;99.90;;;;;;5051187;28;20562;-70
2021/06/29 04:44:20;;;;;;;8.95;6.15;;;17.50;99.90;;;;;;5070358;28;19916;-68
2021/06/29 04:46:49;;;;;;;7.45;4.13;;;17.50;99.90;;;;;;5070206;28;20516;-70
2021/06/29 04:49:15;;;;;;;14.75;5.00;;;17.50;99.90;;;;;;5070636;28;20040;-70
2021/06/29 04:51:41;;;;;;;6.40;4.38;;;17.50;99.90;;;;;;5069564;28;20076;-67
2021/06/29 04:54:07;;;;;;;;;;;17.50;99.90;;;;;;5069302;28;20091;-69
2021/06/29 04:56:32;;;;;;;6.00;3.78;;;17.50;99.90;;;;;;5062412;28;19920;-68
2021/06/29 04:58:58;;;;;;;;;;;17.50;99.90;;;;;;5065418;28;20040;-68
2021/06/29 05:01:24;;;;;;;4.53;3.72;;;17.50;99.90;;;;;;5076227;28;19916;-70
2021/06/29 05:03:50;;;;;;;;;;;17.50;99.90;;;;;;5051326;28;20093;-69
2021/06/29 05:06:16;;;;;;;6.60;3.75;;;17.40;99.90;;;;;;5070739;28;20014;-71
2021/06/29 05:08:41;;;;;;;;;;;17.40;99.90;;;;;;5071122;28;20080;-71
2021/06/29 05:11:07;;;;;;;9.25;4.05;;;17.50;99.90;;;;;;5071144;28;20003;-69
2021/06/29 05:13:33;;;;;;;12.45;3.75;;;17.50;99.90;;;;;;5051608;28;20044;-71
2021/06/29 05:15:59;;;;;;;4.07;3.55;;;17.40;99.90;;;;;;5069049;28;20041;-71
2021/06/29 05:18:24;;;;;;;;;;;17.30;99.90;;;;;;5070044;28;20043;-71
2021/06/29 05:20:50;;;;;;;6.13;3.80;;;17.20;99.90;;;;;;5069909;28;20018;-71
2021/06/29 05:23:15;;;;;;;;;;;17.20;99.90;;;;;;5050278;28;20036;-70
2021/06/29 05:25:41;;;;;;;6.30;3.33;;;17.30;99.90;;;;;;5066629;28;20489;-71
2021/06/29 05:28:07;;;;;;;8.80;5.47;;;17.40;99.90;;;;;;5070645;28;20048;-71
2021/06/29 05:30:32;;;;;;;;;;;17.60;99.90;;;;;;5062720;28;20035;-71
2021/06/29 05:32:58;;;;;;;10.40;8.93;;;17.80;99.90;;;;;;5084179;28;20050;-72
2021/06/29 05:35:25;;;;;;;;;;;17.80;99.90;;;;;;5070088;28;20040;-71
2021/06/29 05:37:51;;;;;;;8.13;4.82;;;17.90;99.90;;;;;;5068578;28;19939;-70
2021/06/29 05:40:16;;;;;;;;;;;17.90;99.90;;;;;;5069878;28;20492;-70
2021/06/29 05:42:42;;;;;;;4.20;3.50;;;17.90;99.90;;;;;;5068190;28;19923;-70
2021/06/29 05:45:09;;;;;;;;;;;17.90;99.90;;;;;;5069351;28;20044;-70
2021/06/29 05:47:36;;;;;;;3.75;3.33;;;17.90;99.90;;;;;;5068596;28;19916;-69
2021/06/29 05:50:04;;;;;;;4.93;3.97;;;17.90;99.90;;;;;;5069157;28;20110;-67
2021/06/29 05:52:30;;;;;;;6.28;4.30;;;17.90;99.90;;;;;;5049765;28;20045;-69
2021/06/29 05:54:56;;;;;;;;;;;17.80;99.90;;;;;;5068698;28;20097;-68
2021/06/29 05:57:21;;;;;;;5.30;4.07;;;17.70;99.90;;;;;;5055264;28;19964;-69
2021/06/29 05:59:47;;;;;;;14.35;3.45;;;17.70;99.90;;;;;;5057993;28;20446;-70
2021/06/29 06:02:13;;;;;;;;;;;17.60;99.90;;;;;;5059939;28;20044;-70
2021/06/29 06:04:39;;;;;;;6.15;4.40;;;17.60;99.90;;;;;;5060152;28;20019;-69
2021/06/29 06:07:06;;;;;;;6.18;5.15;;;17.70;99.90;;;;;;5058053;28;20033;-69
2021/06/29 06:09:32;;;;;;;10.80;5.82;;;17.70;99.90;;;;;;5045530;28;20087;-70
2021/06/29 06:11:58;;;;;;;9.20;6.20;;;17.70;99.90;;;;;;5058318;28;20086;-69
2021/06/29 06:14:24;;;;;;;;;;;17.80;99.90;;;;;;5058308;28;20037;-71
2021/06/29 06:16:49;;;;;;;10.98;6.68;;;17.80;99.90;;;;;;5038739;28;19920;-70
2021/06/29 06:19:15;;;;;;;;;;;17.80;99.90;;;;;;5056154;28;20105;-70
2021/06/29 06:21:40;;;;;;;11.30;6.70;;;17.90;99.90;;;;;;5056957;28;19920;-70
2021/06/29 06:24:06;;;;;;;5.63;4.60;;;17.90;99.90;;;;;;5058330;28;20039;-69
2021/06/29 06:26:32;;;;;;;5.53;4.45;;;17.90;99.90;;;;;;5048547;28;20060;-69
2021/06/29 06:28:58;;;;;;;;;;;18.00;99.90;;;;;;5063286;28;20479;-70
2021/06/29 06:31:23;;;;;;;6.72;5.25;;;18.10;99.90;;;;;;5054958;28;19927;-71
2021/06/29 06:33:49;;;;;;;;;;;18.20;99.90;;;;;;5055435;28;20485;-70
2021/06/29 06:36:15;;;;;;;5.65;4.75;;;18.20;99.90;;;;;;5059370;28;19959;-69
2021/06/29 06:38:41;;;;;;;;;;;18.20;99.90;;;;;;5057015;28;20068;-70
2021/06/29 06:41:07;;;;;;;13.40;8.15;;;18.30;99.90;;;;;;5061417;28;19921;-69
2021/06/29 06:43:32;;;;;;;;;;;18.30;99.90;;;;;;5067100;28;20496;-70
2021/06/29 06:45:58;;;;;;;6.25;4.50;;;18.30;99.90;;;;;;5062283;28;19928;-69
2021/06/29 06:48:23;;;;;;;6.43;4.68;;;18.40;99.90;;;;;;5043737;28;20052;-70
2021/06/29 06:50:49;;;;;;;;;;;18.30;99.90;;;;;;5064154;28;20044;-69
2021/06/29 06:53:14;;;;;;;8.90;4.53;;;18.40;99.90;;;;;;5063377;28;19955;-70
2021/06/29 06:55:41;;;;;;;9.38;4.97;;;18.40;99.90;;;;;;5067950;28;20443;-70
2021/06/29 06:58:06;;;;;;;4.50;4.07;;;18.50;99.90;;;;;;5051563;28;20135;-71
2021/06/29 07:00:32;;;;;;;;;;;18.40;99.90;;;;;;5074216;28;20443;-70
2021/06/29 07:02:58;;;;;;;4.55;3.67;;;18.40;99.90;;;;;;5049472;28;19920;-69
2021/06/29 07:05:24;;;;;;;5.35;3.83;;;18.40;99.90;;;;;;5067395;28;20106;-69
2021/06/29 07:07:50;;;;;;;;;;;18.50;99.90;;;;;;5067936;28;20048;-73
2021/06/29 07:10:16;;;;;;;6.75;4.47;;;18.50;99.90;;;;;;5063374;28;20225;-70
2021/06/29 07:12:41;;;;;;;;;;;18.50;99.90;;;;;;5065190;28;20091;-70
2021/06/29 07:15:08;;;;;;;5.45;3.58;;;18.50;99.90;;;;;;5065778;28;19916;-68
2021/06/29 07:17:35;;;;;;;5.25;3.35;;;18.60;99.90;;;;;;5067476;28;20080;-68
2021/06/29 07:20:01;;;;;;;4.30;3.03;;;18.50;99.90;;;;;;5065403;28;20091;-70
2021/06/29 07:22:27;;;;;;;5.50;3.33;;;18.60;99.90;;;;;;5066619;28;20044;-69
2021/06/29 07:24:53;;;;;;;;;;;18.60;99.90;;;;;;5066571;28;20515;-73
2021/06/29 07:27:18;;;;;;;7.72;5.78;;;18.60;99.90;;;;;;5067303;28;19920;-67
2021/06/29 07:29:44;;;;;;;;;;;18.60;99.90;;;;;;5071958;28;20122;-70
2021/06/29 07:32:10;;;;;;;4.05;3.65;;;18.70;99.90;;;;;;5088998;28;19916;-70
2021/06/29 07:34:36;;;;;;;5.43;4.00;;;18.80;99.90;;;;;;5073976;28;20041;-70
2021/06/29 07:37:01;;;;;;;;;;;18.80;99.90;;;;;;5070610;28;20063;-71
2021/06/29 07:39:27;;;;;;;4.78;3.90;;;18.70;99.90;;;;;;5064317;28;19916;-70
2021/06/29 07:41:53;;;;;;;4.45;3.70;;;18.80;99.90;;;;;;5070009;28;20066;-71
2021/06/29 07:44:18;;;;;;;;;;;18.80;99.90;;;;;;5071767;28;20040;-67
2021/06/29 07:46:44;;;;;;;5.85;3.22;;;18.90;99.90;;;;;;5070929;28;20321;-68
2021/06/29 07:49:09;;;;;;;3.58;3.28;;;19.00;99.90;;;;;;5070604;28;20051;-68
2021/06/29 07:51:35;;;;;;;3.70;3.33;;;19.00;99.90;;;;;;5069979;28;20120;-68
2021/06/29 07:54:01;;;;;;;4.20;3.55;;;19.00;99.90;;;;;;5071274;28;20450;-69
2021/06/29 07:56:26;;;;;;;;;;;19.00;99.90;;;;;;5071278;28;20059;-70
2021/06/29 07:58:52;;;;;;;3.63;3.15;;;19.00;99.90;;;;;;5073775;28;19923;-68
2021/06/29 08:01:18;;;;;;;4.65;3.42;;;19.00;99.90;;;;;;5079211;28;20036;-67
2021/06/29 08:03:45;;;;;;;4.10;3.20;;;19.10;99.90;;;;;;5070566;28;20040;-68
2021/06/29 08:06:11;;;;;;;5.82;3.22;;;19.00;99.90;;;;;;5070505;28;20047;-67
2021/06/29 08:08:36;;;;;;;;;;;19.10;99.90;;;;;;5071397;28;20044;-69
2021/06/29 08:11:05;;;;;;;4.75;3.63;;;19.20;99.90;;;;;;5071074;28;20474;-71
2021/06/29 08:13:31;;;;;;;6.15;4.13;;;19.20;99.90;;;;;;5066174;28;20044;-69
2021/06/29 08:15:57;;;;;;;;;;;19.30;99.90;;;;;;5070066;28;20100;-69
2021/06/29 08:18:23;;;;;;;4.53;4.07;;;19.30;99.90;;;;;;5071256;28;19966;-68
2021/06/29 08:20:50;;;;;;;3.97;3.53;;;19.30;99.90;;;;;;5070262;28;20496;-70
2021/06/29 08:23:16;;;;;;;6.00;3.53;;;19.30;99.90;;;;;;5063844;28;20093;-70
2021/06/29 08:25:43;;;;;;;;;;;19.30;99.90;;;;;;5064292;28;20041;-70
2021/06/29 08:28:11;;;;;;;6.38;3.90;;;19.30;99.90;;;;;;5070113;28;19930;-70
2021/06/29 08:30:37;;;;;;;6.22;4.15;;;19.30;99.90;;;;;;5077479;28;20496;-69
2021/06/29 08:33:02;;;;;;;;;;;19.30;99.90;;;;;;5072922;28;20033;-68
2021/06/29 08:35:28;;;;;;;5.50;4.13;;;19.30;99.90;;;;;;5058616;28;19917;-69
2021/06/29 08:37:54;;;;;;;;;;;19.30;99.90;;;;;;5069877;28;20071;-70
2021/06/29 08:40:19;;;;;;;5.97;4.18;;;19.40;99.90;;;;;;5069555;28;19927;-70
2021/06/29 08:42:47;;;;;;;;;;;19.30;99.90;;;;;;5069281;28;20076;-69
2021/06/29 08:45:16;;;;;;;5.50;4.13;;;19.30;99.90;;;;;;5070131;28;19965;-69
2021/06/29 08:47:42;;;;;;;5.88;4.68;;;19.20;99.90;;;;;;5070238;28;20136;-72
2021/06/29 08:50:11;;;;;;;4.90;4.32;;;19.30;99.90;;;;;;5070079;28;20048;-71
2021/06/29 08:52:37;;;;;;;6.47;4.25;;;19.30;99.90;;;;;;5067802;28;20118;-71
2021/06/29 08:55:06;;;;;;;;;;;19.20;99.90;;;;;;5069899;28;20811;-70
2021/06/29 08:57:31;;;;;;;4.72;4.18;;;19.20;99.90;;;;;;5069798;28;20580;-70
2021/06/29 08:59:58;;;;;;;;;;;19.20;99.90;;;;;;5065042;28;20040;-71
2021/06/29 09:02:24;;;;;;;6.40;4.18;;;19.20;99.90;;;;;;5088653;28;19916;-69
2021/06/29 09:04:54;;;;;;;5.25;4.72;;;19.20;99.90;;;;;;5081390;28;20097;-69
2021/06/29 09:07:25;;;;;;;4.82;4.35;;;19.20;99.90;;;;;;5061932;28;20044;-69
2021/06/29 09:09:54;;;;;;;7.05;4.15;;;19.10;99.90;;;;;;5069019;28;20056;-69
2021/06/29 09:12:38;;;;;;;5.13;3.95;;;19.20;99.90;;;;;;5067020;28;20071;-69
2021/06/29 09:15:23;;;;;;;5.15;4.28;;;19.20;99.90;;;;;;5070404;28;20098;-72
2021/06/29 09:17:53;;;;;;;7.25;3.60;;;19.30;99.90;;;;;;5068898;28;20053;-71
2021/06/29 09:20:31;;;;;;;4.78;3.92;;;19.40;99.90;;;;;;5067066;28;20400;-71
2021/06/29 09:23:23;;;;;;;5.97;4.32;;;19.50;99.90;;;;;;5067441;28;20048;-71
2021/06/29 09:26:09;;;;;;;4.80;4.05;;;19.50;99.90;;;;;;5068881;28;20556;-70
2021/06/29 09:28:41;;;;;;;6.17;4.37;;;19.60;99.90;;;;;;5074583;28;20062;-70
2021/06/29 09:31:13;;;;;;;4.35;3.85;;;19.60;99.90;;;;;;5080209;28;20044;-72
2021/06/29 09:34:07;;;;;;;4.70;3.90;;;19.60;99.90;;;;;;5079664;28;20043;-72
2021/06/29 09:36:36;;;;;;;5.30;3.47;;;19.60;99.90;;;;;;5065177;28;20052;-71
2021/06/29 09:39:07;;;;;;;7.75;4.22;;;19.60;99.90;;;;;;5068017;28;20051;-70
2021/06/29 09:41:35;;;;;;;6.65;5.00;;;19.80;99.90;;;;;;5068115;28;20052;-69
2021/06/29 09:44:05;;;;;;;6.88;4.18;;;20.20;99.90;;;;;;5069186;28;20051;-70
2021/06/29 09:46:31;;;;;;;9.25;4.13;;;20.20;99.90;;;;;;5050540;28;20032;-70
2021/06/29 09:48:59;;;;;;;;;;;20.30;99.90;;;;;;5069102;28;20634;-71
2021/06/29 09:51:28;;;;;;;5.13;3.97;;;20.40;99.90;;;;;;5067508;28;20419;-71
2021/06/29 09:53:56;;;;;;;6.78;5.10;;;20.30;99.90;;;;;;5050140;28;20037;-69
2021/06/29 09:56:30;;;;;;;7.45;3.83;;;20.40;99.90;;;;;;5062309;28;20402;-70
2021/06/29 09:59:00;;;;;;;5.38;3.20;;;20.50;99.90;;;;;;5063408;28;20037;-70
2021/06/29 10:01:30;;;;;;;3.83;3.20;;;20.50;99.90;;;;;;5074535;28;20040;-69
2021/06/29 10:03:58;;;;;;;4.25;3.65;;;20.40;99.90;;;;;;5068483;28;20041;-68
2021/06/29 10:06:25;;;;;;;4.50;3.88;;;20.30;99.90;;;;;;5051046;28;20477;-70
2021/06/29 10:08:52;;;;;;;7.55;4.72;;;20.20;99.90;;;;;;5066452;28;20041;-70
2021/06/29 10:11:21;;;;;;;4.30;3.67;;;20.20;99.90;;;;;;5058494;28;20093;-70
2021/06/29 10:13:48;;;;;;;6.03;3.53;;;20.30;99.90;;;;;;5069071;28;20041;-70
2021/06/29 10:16:17;;;;;;;6.47;3.10;;;20.40;99.90;;;;;;5067184;28;20087;-70
2021/06/29 10:18:49;;;;;;;6.25;3.85;;;20.40;99.90;;;;;;5069978;28;20094;-70
2021/06/29 10:21:25;;;;;;;3.85;3.45;;;20.20;99.90;;;;;;5069940;28;20044;-70
2021/06/29 10:23:56;;;;;;;4.07;3.65;;;20.20;99.90;;;;;;5048303;28;20044;-69
2021/06/29 10:26:24;;;;;;;10.52;4.10;;;20.20;99.90;;;;;;5066207;28;20048;-71
2021/06/29 10:28:51;;;;;;;5.72;4.25;;;20.30;99.90;;;;;;5069767;28;20056;-70
2021/06/29 10:31:20;;;;;;;4.50;3.58;;;20.20;99.90;;;;;;5058777;28;20138;-70
2021/06/29 10:33:47;;;;;;;4.97;3.42;;;20.20;99.90;;;;;;5069214;28;20052;-69
2021/06/29 10:36:14;;;;;;;4.55;3.78;;;20.20;99.90;;;;;;5062935;28;20126;-70
2021/06/29 10:38:39;;;;;;;5.70;3.67;;;20.20;99.90;;;;;;5072762;28;20106;-70
2021/06/29 10:41:05;;;;;;;;;;;20.20;99.90;;;;;;5069341;28;20475;-70
2021/06/29 10:43:34;;;;;;;4.78;3.90;;;20.30;99.90;;;;;;5067862;28;20043;-70
2021/06/29 10:46:01;;;;;;;6.05;3.50;;;20.30;99.90;;;;;;5067494;28;20040;-70
2021/06/29 10:48:28;;;;;;;4.65;3.25;;;20.40;99.90;;;;;;5068474;28;20075;-69
2021/06/29 10:50:59;;;;;;;5.05;4.00;;;20.40;99.90;;;;;;5068380;28;20044;-69
2021/06/29 10:53:37;;;;;;;4.18;3.40;;;20.50;99.90;;;;;;5068093;28;20489;-71
2021/06/29 10:56:16;;;;;;;4.05;3.30;;;20.40;99.90;;;;;;5072168;28;20049;-69
2021/06/29 10:58:45;;;;;;;3.63;3.30;;;20.50;99.90;;;;;;5068182;28;20404;-71
2021/06/29 11:01:25;;;;;;;4.28;3.10;;;20.50;99.90;;;;;;5075707;28;20037;-70
2021/06/29 11:03:52;;;;;;;3.60;3.25;;;20.70;99.90;;;;;;5068294;28;20094;-69
2021/06/29 11:06:46;;;;;;;3.25;2.70;;;20.90;99.90;;;;;;5064100;28;20033;-70
2021/06/29 11:09:19;;;;;;;3.80;2.70;;;21.10;99.90;;;;;;5067852;28;20062;-71
2021/06/29 11:12:21;;;;;;;3.90;2.88;;;21.50;99.90;;;;;;5067638;28;20068;-69
2021/06/29 11:14:48;;;;;;;2.83;2.08;;;21.90;99.90;;;;;;5068565;28;21002;-64
2021/06/29 11:17:16;;;;;;;2.47;2.28;;;21.90;97.70;;;;;;5072294;28;20051;-68
2021/06/29 11:20:00;;;;;;;3.78;2.00;;;22.10;99.10;;;;;;5067753;28;20043;-70
2021/06/29 11:22:47;;;;;;;3.88;2.17;;;21.90;97.10;;;;;;5067716;28;20033;-69
2021/06/29 11:25:15;;;;;;;4.53;1.73;;;21.80;98.70;;;;;;5079866;28;20627;-69
2021/06/29 11:28:02;;;;;;;3.63;2.10;;;21.60;97.00;;;;;;5086327;28;20055;-68
2021/06/29 11:30:50;;;;;;;1.90;1.63;;;21.80;96.10;;;;;;5068652;28;20040;-69
2021/06/29 11:33:59;;;;;;;3.70;1.95;;;22.00;96.60;;;;;;5068033;28;20048;-70
2021/06/29 11:36:25;;;;;;;3.28;2.08;;;22.10;95.80;;;;;;5068800;28;20102;-70
2021/06/29 11:38:53;;;;;;;3.05;1.65;;;22.00;97.50;;;;;;5068357;28;20516;-69
2021/06/29 11:41:26;;;;;;;4.80;2.08;;;21.90;96.80;;;;;;5068208;28;20044;-70
2021/06/29 11:43:53;;;;;;;3.75;2.70;;;21.80;95.70;;;;;;5067475;28;20102;-70
2021/06/29 11:46:48;;;;;;;3.78;1.92;;;21.70;95.20;;;;;;5068249;28;20140;-70
2021/06/29 11:49:15;;;;;;;6.03;2.58;;;21.80;95.20;;;;;;5068391;28;20045;-70
2021/06/29 11:51:47;;;;;;;1.98;1.65;;;21.80;95.90;;;;;;5068311;28;20532;-69
2021/06/29 11:54:44;;;;;;;2.00;1.60;;;21.80;95.10;;;;;;5066017;28;20572;-69
2021/06/29 11:57:36;;;;;;;2.28;1.50;;;22.20;94.60;;;;;;5064613;28;20052;-69
2021/06/29 12:00:19;;;;;;;7.55;2.00;;;22.60;93.30;;;;;;5073680;28;20055;-70
2021/06/29 12:02:49;;;;;;;4.22;1.63;;;22.70;94.10;;;;;;5067025;28;20079;-70
2021/06/29 12:05:19;;;;;;;3.90;1.77;;;22.90;92.30;;;;;;5068335;28;20040;-70
2021/06/29 12:07:46;;;;;;;4.38;1.67;;;22.80;93.80;;;;;;5033738;28;20075;-70
2021/06/29 12:10:16;;;;;;;2.92;1.67;;;22.50;94.10;;;;;;5067886;28;20106;-69
2021/06/29 12:12:44;;;;;;;2.33;1.63;;;22.50;93.90;;;;;;5068961;28;20052;-69
2021/06/29 12:15:30;;;;;;;4.03;1.55;;;22.40;95.10;;;;;;5070250;28;20052;-69
2021/06/29 12:18:00;;;;;;;2.20;1.70;;;22.40;96.20;;;;;;5072644;28;20049;-70
2021/06/29 12:20:35;;;;;;;2.30;1.63;;;22.20;95.90;;;;;;5072352;28;20045;-68
2021/06/29 12:23:03;;;;;;;5.75;2.10;;;22.00;96.80;;;;;;5072090;28;20086;-69
2021/06/29 12:25:36;;;;;;;2.00;1.80;;;21.90;96.80;;;;;;5071693;28;20420;-70
2021/06/29 12:28:07;;;;;;;3.40;2.25;;;22.10;95.60;;;;;;5071962;28;20047;-69
2021/06/29 12:30:48;;;;;;;3.08;1.63;;;22.30;95.90;;;;;;5064507;28;20043;-68
2021/06/29 12:33:20;;;;;;;2.05;1.77;;;22.40;94.70;;;;;;5086218;28;20115;-69
2021/06/29 12:35:52;;;;;;;2.50;1.90;;;22.60;93.40;;;;;;5071076;28;20255;-69
2021/06/29 12:38:20;;;;;;;2.03;1.83;;;22.70;95.10;;;;;;5071684;28;20111;-68
2021/06/29 12:40:50;;;;;;;1.98;1.55;;;22.60;92.80;;;;;;5071477;28;20528;-70
2021/06/29 12:43:29;;;;;;;2.55;1.98;;;22.50;94.10;;;;;;5070765;28;20045;-69
2021/06/29 12:45:56;;;;;;;3.78;1.83;;;22.60;94.30;;;;;;5069860;28;20060;-68
2021/06/29 12:48:22;;;;;;;2.22;1.77;;;22.60;94.70;;;;;;5071380;28;20048;-69
2021/06/29 12:51:02;;;;;;;2.67;1.88;;;22.80;94.80;;;;;;5070928;28;20543;-69
2021/06/29 12:53:28;;;;;;;5.43;2.03;;;22.80;93.40;;;;;;5070512;28;20040;-68
2021/06/29 12:56:05;;;;;;;2.72;2.00;;;22.70;94.30;;;;;;5065292;28;20457;-69
2021/06/29 12:58:31;;;;;;;2.30;1.88;;;22.60;94.10;;;;;;5063352;28;20051;-70
2021/06/29 13:00:57;;;;;;;9.10;2.25;;;22.70;95.30;;;;;;5081753;28;20048;-69
2021/06/29 13:03:23;;;;;;;5.93;1.95;;;22.90;95.60;;;;;;5091315;28;20040;-69
2021/06/29 13:05:48;;;;;;;3.20;2.33;;;22.70;94.80;;;;;;5090715;28;20404;-69
2021/06/29 13:08:18;;;;;;;3.50;2.60;;;22.60;93.10;;;;;;5072582;28;20040;-68
2021/06/29 13:10:45;;;;;;;2.20;2.00;;;22.80;95.10;;;;;;5090850;28;20043;-69